Time;durP1;ratioP1;P1;durP2;ratioP2;P2;SDS_P1;SDS_P2;PMS_P1;PMS_P2;Temp;Humidity;BMP_temperature;BMP_pressure;BME280_temperature;BME280_humidity;BME280_pressure;Samples;Min_cycle;Max_cycle;Signal;HPM_P1;HPM_P2
2022/04/23 00:01:46;;;;;;;6.32;4.97;;;14.30;92.10;;;;;;4936096;29;20071;-78
2022/04/23 00:04:13;;;;;;;8.05;6.90;;;14.30;92.30;;;;;;4935792;29;20090;-78
2022/04/23 00:06:39;;;;;;;7.30;6.60;;;14.20;92.30;;;;;;4936815;29;20083;-78
2022/04/23 00:09:06;;;;;;;9.00;6.38;;;14.30;92.20;;;;;;4933760;29;20433;-78
2022/04/23 00:11:32;;;;;;;6.15;5.55;;;14.30;92.20;;;;;;4936041;29;20039;-78
2022/04/23 00:13:59;;;;;;;7.13;5.53;;;14.30;92.10;;;;;;4935318;29;20496;-78
2022/04/23 00:16:25;;;;;;;8.02;6.57;;;14.40;92.10;;;;;;4919485;29;20066;-78
2022/04/23 00:18:51;;;;;;;5.85;4.93;;;14.30;92.10;;;;;;4923220;29;20127;-79
2022/04/23 00:21:18;;;;;;;6.30;4.88;;;14.30;92.10;;;;;;4931103;29;20119;-78
2022/04/23 00:23:45;;;;;;;5.93;5.32;;;14.30;92.10;;;;;;4930978;29;20028;-78
2022/04/23 00:26:11;;;;;;;5.93;4.80;;;14.20;92.30;;;;;;4931336;29;20114;-78
2022/04/23 00:28:36;;;;;;;6.13;5.28;;;14.20;92.20;;;;;;4929186;29;20123;-78
2022/04/23 00:31:04;;;;;;;8.88;5.75;;;14.20;92.20;;;;;;4934685;29;20385;-78
2022/04/23 00:33:29;;;;;;;6.88;5.10;;;14.20;92.10;;;;;;4933728;29;20059;-78
2022/04/23 00:35:55;;;;;;;6.07;5.47;;;14.30;92.10;;;;;;4933189;29;20440;-78
2022/04/23 00:38:20;;;;;;;6.80;5.47;;;14.30;92.00;;;;;;4933475;29;20048;-78
2022/04/23 00:40:46;;;;;;;6.35;5.47;;;14.30;92.00;;;;;;4934056;29;20111;-78
2022/04/23 00:43:35;;;;;;;5.88;5.35;;;14.30;92.00;;;;;;4918828;29;20078;-78
2022/04/23 00:46:02;;;;;;;7.63;5.40;;;14.30;91.90;;;;;;4930577;29;20083;-79
2022/04/23 00:48:29;;;;;;;6.00;5.43;;;14.40;91.90;;;;;;4917536;29;20047;-78
2022/04/23 00:50:57;;;;;;;6.22;5.07;;;14.40;91.90;;;;;;4934529;29;20067;-78
2022/04/23 00:53:24;;;;;;;5.93;4.90;;;14.40;91.80;;;;;;4934865;29;20043;-78
2022/04/23 00:55:54;;;;;;;5.30;4.80;;;14.40;91.70;;;;;;4918210;29;20434;-76
2022/04/23 00:58:20;;;;;;;6.05;4.93;;;14.40;91.70;;;;;;4927962;29;20039;-76
2022/04/23 01:00:47;;;;;;;5.22;4.72;;;14.40;91.70;;;;;;4933606;29;20044;-76
2022/04/23 01:03:13;;;;;;;6.32;4.75;;;14.40;91.60;;;;;;4933653;29;20143;-76
2022/04/23 01:05:46;;;;;;;4.80;4.30;;;14.40;91.60;;;;;;4933012;29;20036;-79
2022/04/23 01:08:18;;;;;;;5.22;4.40;;;14.40;91.60;;;;;;4934862;29;20047;-79
2022/04/23 01:10:45;;;;;;;5.13;4.43;;;14.40;91.50;;;;;;4934173;29;20036;-78
2022/04/23 01:13:14;;;;;;;5.22;4.35;;;14.40;91.50;;;;;;4924633;29;20052;-78
2022/04/23 01:15:43;;;;;;;4.85;4.40;;;14.30;91.50;;;;;;4922390;29;20039;-78
2022/04/23 01:18:09;;;;;;;4.78;4.00;;;14.30;91.50;;;;;;4930885;29;20515;-79
2022/04/23 01:20:36;;;;;;;6.07;4.18;;;14.30;91.50;;;;;;4918490;29;20131;-77
2022/04/23 01:23:02;;;;;;;3.63;3.33;;;14.40;91.50;;;;;;4916748;29;20055;-77
2022/04/23 01:25:30;;;;;;;4.38;3.97;;;14.40;91.50;;;;;;4932675;29;20044;-76
2022/04/23 01:27:57;;;;;;;5.30;4.28;;;14.30;91.40;;;;;;4932061;29;20122;-77
2022/04/23 01:30:22;;;;;;;4.47;3.58;;;14.30;91.50;;;;;;4932916;29;20043;-76
2022/04/23 01:32:48;;;;;;;3.92;3.53;;;14.30;91.50;;;;;;4933838;29;20377;-78
2022/04/23 01:35:14;;;;;;;5.97;4.18;;;14.30;91.40;;;;;;4934686;29;20495;-78
2022/04/23 01:37:39;;;;;;;5.15;3.35;;;14.30;91.40;;;;;;4935093;29;20036;-78
2022/04/23 01:40:06;;;;;;;4.40;4.00;;;14.20;91.40;;;;;;4934013;29;20191;-77
2022/04/23 01:42:31;;;;;;;4.57;3.67;;;14.30;91.40;;;;;;4933089;29;20036;-78
2022/04/23 01:44:57;;;;;;;4.68;3.80;;;14.20;91.40;;;;;;4932927;29;20487;-77
2022/04/23 01:47:23;;;;;;;3.70;3.40;;;14.30;91.40;;;;;;4899377;29;20051;-77
2022/04/23 01:49:48;;;;;;;3.80;3.35;;;14.30;91.40;;;;;;4933845;29;20110;-77
2022/04/23 01:52:15;;;;;;;3.92;3.53;;;14.20;91.40;;;;;;4932474;29;20052;-77
2022/04/23 01:54:40;;;;;;;4.70;3.60;;;14.20;91.40;;;;;;4932677;29;20040;-78
2022/04/23 01:57:06;;;;;;;4.30;3.50;;;14.10;91.60;;;;;;4930777;29;20039;-77
2022/04/23 01:59:32;;;;;;;4.85;4.35;;;14.10;91.60;;;;;;4917219;29;20064;-78
2022/04/23 02:02:01;;;;;;;5.65;4.20;;;14.10;91.60;;;;;;4926734;29;20046;-77
2022/04/23 02:04:27;;;;;;;5.22;4.13;;;14.10;91.50;;;;;;4933754;29;20043;-78
2022/04/23 02:06:53;;;;;;;5.05;4.03;;;14.10;91.50;;;;;;4930330;29;20404;-77
2022/04/23 02:09:19;;;;;;;4.78;4.30;;;14.10;91.40;;;;;;4933211;29;20036;-78
2022/04/23 02:11:45;;;;;;;4.75;4.35;;;14.00;91.40;;;;;;4934234;29;20046;-77
2022/04/23 02:14:10;;;;;;;5.88;5.20;;;14.00;91.40;;;;;;4932795;29;20039;-78
2022/04/23 02:16:36;;;;;;;5.60;5.00;;;14.00;91.40;;;;;;4932638;29;20489;-77
2022/04/23 02:19:03;;;;;;;5.50;4.78;;;13.90;91.50;;;;;;4916711;29;20039;-78
2022/04/23 02:21:30;;;;;;;6.22;5.13;;;13.90;91.50;;;;;;4934911;29;20043;-77
2022/04/23 02:23:56;;;;;;;5.90;5.38;;;13.90;91.40;;;;;;4934954;29;20040;-77
2022/04/23 02:26:22;;;;;;;5.45;4.95;;;13.90;91.50;;;;;;4934326;29;20039;-78
2022/04/23 02:28:51;;;;;;;5.72;4.55;;;13.90;91.50;;;;;;4919972;29;20489;-78
2022/04/23 02:31:17;;;;;;;6.68;5.15;;;13.90;91.50;;;;;;4934337;29;20047;-78
2022/04/23 02:33:44;;;;;;;5.10;4.60;;;13.80;91.40;;;;;;4934816;29;20499;-77
2022/04/23 02:36:11;;;;;;;6.20;5.60;;;13.80;91.50;;;;;;4927219;29;20040;-78
2022/04/23 02:38:41;;;;;;;5.90;5.40;;;13.80;91.50;;;;;;4934895;29;20040;-78
2022/04/23 02:41:10;;;;;;;7.45;5.88;;;13.80;91.50;;;;;;4927628;29;20044;-78
2022/04/23 02:43:38;;;;;;;6.35;5.43;;;13.70;91.50;;;;;;4934804;29;20087;-78
2022/04/23 02:46:07;;;;;;;6.32;5.72;;;13.60;91.60;;;;;;4933915;29;20039;-77
2022/04/23 02:48:32;;;;;;;6.70;6.10;;;13.60;91.60;;;;;;4934253;29;20032;-78
2022/04/23 02:50:59;;;;;;;7.13;6.05;;;13.60;91.60;;;;;;4934294;29;20036;-77
2022/04/23 02:53:26;;;;;;;8.38;7.57;;;13.70;91.50;;;;;;4933506;29;20508;-77
2022/04/23 02:55:54;;;;;;;6.97;6.28;;;13.50;91.60;;;;;;4928506;29;20025;-77
2022/04/23 02:58:20;;;;;;;6.25;5.65;;;13.40;91.90;;;;;;4936239;29;20047;-77
2022/04/23 03:00:46;;;;;;;6.47;5.80;;;13.40;91.90;;;;;;4938604;29;20028;-79
2022/04/23 03:03:12;;;;;;;6.60;5.57;;;13.40;91.80;;;;;;4934045;29;20048;-78
2022/04/23 03:05:44;;;;;;;7.03;6.32;;;13.50;91.70;;;;;;4929530;29;20110;-78
2022/04/23 03:08:11;;;;;;;6.65;6.03;;;13.60;91.60;;;;;;4936935;29;20114;-79
2022/04/23 03:10:39;;;;;;;6.72;6.10;;;13.60;91.50;;;;;;4937794;29;20063;-77
2022/04/23 03:13:06;;;;;;;6.82;6.13;;;13.60;91.50;;;;;;4919505;29;20408;-77
2022/04/23 03:15:31;;;;;;;6.68;6.03;;;13.60;91.40;;;;;;4932043;29;20040;-78
2022/04/23 03:18:10;;;;;;;7.30;6.60;;;13.60;91.30;;;;;;4933376;29;20035;-78
2022/04/23 03:20:37;;;;;;;7.50;6.80;;;13.60;91.20;;;;;;4936850;29;20039;-77
2022/04/23 03:23:04;;;;;;;6.93;6.30;;;13.50;91.30;;;;;;4936265;29;20039;-78
2022/04/23 03:25:31;;;;;;;6.32;5.72;;;13.50;91.30;;;;;;4936071;29;20039;-78
2022/04/23 03:27:57;;;;;;;7.55;6.70;;;13.50;91.40;;;;;;4929645;29;20040;-78
2022/04/23 03:30:23;;;;;;;7.43;6.72;;;13.50;91.40;;;;;;4925803;29;20054;-78
2022/04/23 03:32:48;;;;;;;7.00;6.30;;;13.50;91.40;;;;;;4937060;29;20032;-79
2022/04/23 03:35:14;;;;;;;8.73;7.65;;;13.50;91.40;;;;;;4936083;29;20047;-78
2022/04/23 03:37:41;;;;;;;7.45;6.72;;;13.50;91.30;;;;;;4936800;29;20440;-78
2022/04/23 03:40:09;;;;;;;8.30;7.43;;;13.50;91.30;;;;;;4937622;29;20047;-78
2022/04/23 03:42:35;;;;;;;8.45;7.60;;;13.50;91.30;;;;;;4937203;29;20119;-78
2022/04/23 03:45:02;;;;;;;8.00;6.72;;;13.50;91.20;;;;;;4937037;29;20126;-79
2022/04/23 03:47:27;;;;;;;7.85;7.05;;;13.60;91.30;;;;;;4936375;29;20470;-79
2022/04/23 03:49:53;;;;;;;7.55;6.85;;;13.60;91.30;;;;;;4936560;29;20036;-79
2022/04/23 03:52:19;;;;;;;7.22;6.60;;;13.60;91.30;;;;;;4935950;29;20075;-80
2022/04/23 03:54:46;;;;;;;8.32;7.53;;;13.60;91.20;;;;;;4919590;29;20068;-80
2022/04/23 03:57:12;;;;;;;8.75;7.95;;;13.60;91.20;;;;;;4929133;29;20071;-79
2022/04/23 03:59:37;;;;;;;9.45;8.25;;;13.60;91.20;;;;;;4931623;29;20071;-78
2022/04/23 04:02:04;;;;;;;10.43;7.95;;;13.60;91.30;;;;;;4936816;29;20055;-79
2022/04/23 04:04:33;;;;;;;7.70;7.00;;;13.50;91.40;;;;;;4926699;29;20047;-79
2022/04/23 04:07:00;;;;;;;8.20;7.40;;;13.30;91.70;;;;;;4936454;29;20042;-79
2022/04/23 04:09:27;;;;;;;9.10;8.25;;;13.30;91.60;;;;;;4919360;29;20044;-79
2022/04/23 04:12:02;;;;;;;9.48;8.43;;;13.30;91.80;;;;;;4935414;29;20044;-79
2022/04/23 04:14:32;;;;;;;8.80;7.90;;;13.40;91.50;;;;;;4935011;29;20035;-77
2022/04/23 04:17:02;;;;;;;9.95;8.50;;;13.40;91.40;;;;;;4916667;29;20048;-77
2022/04/23 04:19:30;;;;;;;9.57;8.65;;;13.30;91.40;;;;;;4935451;29;20190;-77
2022/04/23 04:21:57;;;;;;;9.13;8.23;;;13.30;91.40;;;;;;4935810;29;20040;-77
2022/04/23 04:24:23;;;;;;;8.77;7.88;;;13.30;91.40;;;;;;4930956;29;20043;-78
2022/04/23 04:26:49;;;;;;;9.23;8.15;;;13.30;91.40;;;;;;4936765;29;20464;-78
2022/04/23 04:29:15;;;;;;;8.85;7.95;;;13.20;91.60;;;;;;4926841;29;20105;-78
2022/04/23 04:31:47;;;;;;;9.15;7.97;;;13.20;91.60;;;;;;4935131;29;20071;-78
2022/04/23 04:34:17;;;;;;;8.95;8.10;;;13.20;91.60;;;;;;4916893;29;20074;-79
2022/04/23 04:36:43;;;;;;;9.55;8.65;;;13.30;91.60;;;;;;4927391;29;20045;-79
2022/04/23 04:39:09;;;;;;;9.35;8.35;;;13.30;91.50;;;;;;4935852;29;20095;-79
2022/04/23 04:41:35;;;;;;;11.88;10.77;;;13.30;91.50;;;;;;4935789;29;20035;-79
2022/04/23 04:44:02;;;;;;;11.75;10.55;;;13.20;91.70;;;;;;4935574;29;20046;-78
2022/04/23 04:46:28;;;;;;;10.15;9.20;;;13.00;92.00;;;;;;4931961;29;20099;-77
2022/04/23 04:48:53;;;;;;;10.32;9.18;;;13.00;92.00;;;;;;4934981;29;20036;-77
2022/04/23 04:51:19;;;;;;;9.38;8.45;;;13.10;92.00;;;;;;4933856;29;20055;-76
2022/04/23 04:53:45;;;;;;;10.48;8.80;;;13.10;92.00;;;;;;4934844;29;20473;-77
2022/04/23 04:56:11;;;;;;;9.80;8.77;;;13.10;92.00;;;;;;4929957;29;20036;-77
2022/04/23 04:58:37;;;;;;;9.38;8.50;;;13.00;92.10;;;;;;4930649;29;20092;-77
2022/04/23 05:01:03;;;;;;;9.75;8.55;;;13.00;92.20;;;;;;4916722;29;20058;-77
2022/04/23 05:03:29;;;;;;;15.18;13.35;;;12.90;92.40;;;;;;4933721;29;20094;-76
2022/04/23 05:05:55;;;;;;;10.50;9.32;;;12.80;92.50;;;;;;4932931;29;20035;-78
2022/04/23 05:08:20;;;;;;;11.52;10.38;;;12.80;92.80;;;;;;4915838;29;20043;-77
2022/04/23 05:10:47;;;;;;;9.90;8.93;;;12.80;92.90;;;;;;4913327;29;20040;-76
2022/04/23 05:13:13;;;;;;;9.60;8.73;;;12.70;93.00;;;;;;4933198;29;20515;-76
2022/04/23 05:15:39;;;;;;;10.88;9.68;;;12.80;92.90;;;;;;4933625;29;20040;-75
2022/04/23 05:18:04;;;;;;;9.52;8.63;;;12.80;92.90;;;;;;4932698;29;20106;-76
2022/04/23 05:20:30;;;;;;;10.05;8.65;;;12.70;93.00;;;;;;4931345;29;20032;-76
2022/04/23 05:22:56;;;;;;;9.00;8.10;;;12.80;93.10;;;;;;4932449;29;20376;-76
2022/04/23 05:25:22;;;;;;;10.95;9.40;;;12.80;93.00;;;;;;4935135;29;20046;-78
2022/04/23 05:27:47;;;;;;;9.02;8.15;;;12.80;93.10;;;;;;4933980;29;20123;-79
2022/04/23 05:30:13;;;;;;;9.18;8.27;;;12.70;93.10;;;;;;4932719;29;20135;-76
2022/04/23 05:32:39;;;;;;;9.93;8.93;;;12.90;92.80;;;;;;4915464;29;20059;-77
2022/04/23 05:35:05;;;;;;;10.82;9.73;;;12.90;92.80;;;;;;4924927;29;20038;-76
2022/04/23 05:37:31;;;;;;;11.52;10.32;;;12.90;92.80;;;;;;4933701;29;20040;-75
2022/04/23 05:39:56;;;;;;;10.25;9.25;;;13.00;92.90;;;;;;4934993;29;20031;-75
2022/04/23 05:42:22;;;;;;;10.88;9.88;;;13.10;93.00;;;;;;4935184;29;20107;-75
2022/04/23 05:44:48;;;;;;;11.07;9.98;;;13.20;92.90;;;;;;4923054;29;20091;-77
2022/04/23 05:47:13;;;;;;;10.68;9.57;;;13.30;92.90;;;;;;4935657;29;20039;-75
2022/04/23 05:49:39;;;;;;;10.75;9.75;;;13.40;92.70;;;;;;4934699;29;20035;-75
2022/04/23 05:52:05;;;;;;;12.48;11.32;;;13.60;92.60;;;;;;4934718;29;20067;-76
2022/04/23 05:54:31;;;;;;;9.98;8.98;;;13.60;92.40;;;;;;4930379;29;20035;-76
2022/04/23 05:56:56;;;;;;;9.88;8.88;;;13.50;92.70;;;;;;4929518;29;20042;-73
2022/04/23 05:59:25;;;;;;;9.10;8.20;;;13.50;92.70;;;;;;4936674;29;20401;-75
2022/04/23 06:01:51;;;;;;;8.63;7.75;;;13.70;92.80;;;;;;4933475;29;20050;-74
2022/04/23 06:04:16;;;;;;;8.60;7.70;;;13.80;92.90;;;;;;4919659;29;20397;-74
2022/04/23 06:06:42;;;;;;;9.15;8.20;;;13.80;92.60;;;;;;4932812;29;20048;-74
2022/04/23 06:09:08;;;;;;;8.52;7.72;;;13.90;92.70;;;;;;4932505;29;20043;-81
2022/04/23 06:11:33;;;;;;;9.05;8.18;;;13.90;92.70;;;;;;4934417;29;20465;-76
2022/04/23 06:13:59;;;;;;;8.23;7.35;;;14.00;92.60;;;;;;4929055;29;20030;-76
2022/04/23 06:16:25;;;;;;;8.27;7.47;;;14.10;92.50;;;;;;4930904;29;20075;-76
2022/04/23 06:18:50;;;;;;;9.30;8.40;;;14.20;92.40;;;;;;4935057;29;20067;-81
2022/04/23 06:21:17;;;;;;;7.47;6.70;;;14.20;92.20;;;;;;4929645;29;20484;-74
2022/04/23 06:23:43;;;;;;;6.95;6.22;;;14.20;92.30;;;;;;4931704;29;20032;-79
2022/04/23 06:26:09;;;;;;;7.57;6.78;;;14.30;92.20;;;;;;4929807;29;20043;-75
2022/04/23 06:28:34;;;;;;;7.47;6.28;;;14.30;92.20;;;;;;4928683;29;20495;-78
2022/04/23 06:31:00;;;;;;;7.25;6.25;;;14.30;92.20;;;;;;4932424;29;20044;-75
2022/04/23 06:33:26;;;;;;;8.15;7.28;;;14.40;92.30;;;;;;4935660;29;20104;-77
2022/04/23 06:35:52;;;;;;;7.63;6.82;;;14.40;92.10;;;;;;4916219;29;20112;-78
2022/04/23 06:38:17;;;;;;;8.50;6.90;;;14.60;92.00;;;;;;4909680;29;20036;-74
2022/04/23 06:40:43;;;;;;;8.80;7.40;;;14.60;91.80;;;;;;4925123;29;20058;-78
2022/04/23 06:43:08;;;;;;;7.68;6.90;;;14.70;91.90;;;;;;4934484;29;20074;-78
2022/04/23 06:45:34;;;;;;;7.90;7.20;;;14.70;91.80;;;;;;4950307;29;20048;-82
2022/04/23 06:48:04;;;;;;;8.02;7.28;;;14.80;91.70;;;;;;4943364;29;20040;-77
2022/04/23 06:50:41;;;;;;;7.80;7.00;;;14.80;91.60;;;;;;4919926;29;20119;-77
2022/04/23 06:53:07;;;;;;;7.25;6.55;;;14.90;91.60;;;;;;4931172;29;20468;-74
2022/04/23 06:55:55;;;;;;;6.60;5.93;;;15.00;91.50;;;;;;4921582;29;20059;-75
2022/04/23 06:58:22;;;;;;;7.17;6.23;;;15.00;91.20;;;;;;4920475;29;20059;-74
2022/04/23 07:00:48;;;;;;;8.68;7.57;;;15.00;91.30;;;;;;4935789;29;20406;-77
2022/04/23 07:03:13;;;;;;;7.47;6.78;;;15.00;91.30;;;;;;4938642;29;20031;-77
2022/04/23 07:05:39;;;;;;;8.35;7.55;;;15.10;91.30;;;;;;4941062;29;20500;-78
2022/04/23 07:08:05;;;;;;;8.27;7.40;;;15.20;91.40;;;;;;4958090;29;20051;-78
2022/04/23 07:10:32;;;;;;;7.43;6.72;;;15.20;91.30;;;;;;4940317;29;20400;-78
2022/04/23 07:12:58;;;;;;;7.82;7.00;;;15.30;91.30;;;;;;4937936;29;20091;-78
2022/04/23 07:15:25;;;;;;;8.18;6.28;;;15.40;91.50;;;;;;4938396;29;20051;-77
2022/04/23 07:17:51;;;;;;;8.98;6.28;;;15.40;91.20;;;;;;4938625;29;20043;-77
2022/04/23 07:20:18;;;;;;;6.30;5.70;;;15.50;91.00;;;;;;4938497;29;20036;-78
2022/04/23 07:25:33;;;;;;;4.43;4.03;;;15.40;90.60;;;;;;4938012;29;20043;-76
2022/04/23 07:27:59;;;;;;;5.15;4.55;;;15.40;90.60;;;;;;4937963;29;20136;-77
2022/04/23 07:30:26;;;;;;;6.57;5.25;;;15.50;90.60;;;;;;4935729;29;20043;-78
2022/04/23 07:32:53;;;;;;;5.68;5.07;;;15.50;90.60;;;;;;4951512;29;20069;-77
2022/04/23 07:38:17;;;;;;;7.43;5.60;;;15.60;90.40;;;;;;4936338;29;20501;-76
2022/04/23 07:40:49;;;;;;;6.05;4.80;;;15.70;90.10;;;;;;4945924;29;20114;-76
2022/04/23 07:43:16;;;;;;;6.25;5.40;;;15.70;89.80;;;;;;4952728;28;20388;-76
2022/04/23 07:45:44;;;;;;;7.55;4.93;;;15.80;90.20;;;;;;4942861;29;20063;-76
2022/04/23 07:48:12;;;;;;;5.53;4.07;;;15.90;90.10;;;;;;4944059;29;20039;-76
2022/04/23 07:50:39;;;;;;;4.05;3.65;;;16.00;89.90;;;;;;4937127;29;20476;-76
2022/04/23 07:53:07;;;;;;;5.40;4.28;;;16.10;89.70;;;;;;4936519;29;20064;-76
2022/04/23 07:55:35;;;;;;;8.70;6.07;;;16.20;89.50;;;;;;4936315;29;20035;-76
2022/04/23 07:58:02;;;;;;;9.43;7.05;;;16.40;89.20;;;;;;4939070;29;20028;-76
2022/04/23 08:00:29;;;;;;;9.52;6.43;;;16.40;88.70;;;;;;4936969;29;20054;-76
2022/04/23 08:02:56;;;;;;;8.05;6.47;;;16.40;88.30;;;;;;4934177;29;20032;-76
2022/04/23 08:05:21;;;;;;;13.18;9.60;;;16.40;88.10;;;;;;4935032;29;20401;-76
2022/04/23 08:07:47;;;;;;;8.52;7.05;;;16.30;86.80;;;;;;4936494;29;20055;-76
2022/04/23 08:10:13;;;;;;;10.18;7.20;;;16.20;87.30;;;;;;4933936;29;20067;-77
2022/04/23 08:12:39;;;;;;;8.05;6.05;;;16.20;87.50;;;;;;4918620;29;20044;-76
2022/04/23 08:15:06;;;;;;;8.48;6.40;;;16.20;87.60;;;;;;4934917;29;20058;-76
2022/04/23 08:17:32;;;;;;;7.68;5.53;;;16.20;87.70;;;;;;4935101;29;20051;-76
2022/04/23 08:19:57;;;;;;;7.22;5.75;;;16.30;87.90;;;;;;4935448;29;20036;-77
2022/04/23 08:22:23;;;;;;;6.35;4.85;;;16.30;87.80;;;;;;4932399;29;20419;-77
2022/04/23 08:24:49;;;;;;;8.35;4.72;;;16.30;87.40;;;;;;4918857;29;20040;-77
2022/04/23 08:27:15;;;;;;;4.95;4.22;;;16.40;87.60;;;;;;4937107;29;20032;-76
2022/04/23 08:32:25;;;;;;;5.07;3.72;;;16.30;87.20;;;;;;4932234;29;20055;-78
2022/04/23 08:34:50;;;;;;;3.97;2.88;;;16.30;87.70;;;;;;4934652;29;20047;-77
2022/04/23 08:37:16;;;;;;;4.30;2.67;;;16.30;85.90;;;;;;4934042;29;20028;-76
2022/04/23 08:39:47;;;;;;;2.28;2.00;;;16.30;86.60;;;;;;4934917;29;20168;-76
2022/04/23 08:42:16;;;;;;;2.85;2.00;;;16.50;87.40;;;;;;4933872;29;20477;-76
2022/04/23 08:44:42;;;;;;;2.45;1.98;;;16.60;86.80;;;;;;4935089;29;20046;-77
2022/04/23 08:47:11;;;;;;;4.05;2.45;;;16.60;86.10;;;;;;4917451;29;20047;-76
2022/04/23 08:49:40;;;;;;;2.53;1.67;;;16.60;85.90;;;;;;4933849;29;20051;-76
2022/04/23 08:52:13;;;;;;;2.90;1.90;;;16.60;86.00;;;;;;4934687;29;20042;-76
2022/04/23 08:54:39;;;;;;;1.75;1.05;;;16.60;86.20;;;;;;4927705;29;20127;-76
2022/04/23 08:57:05;;;;;;;1.38;1.05;;;16.70;85.50;;;;;;4934257;29;20075;-76
2022/04/23 08:59:31;;;;;;;2.65;1.27;;;16.80;86.00;;;;;;4934905;29;20496;-76
2022/04/23 09:01:57;;;;;;;1.20;1.00;;;17.00;86.10;;;;;;4934406;29;20047;-76
2022/04/23 09:04:22;;;;;;;2.65;1.27;;;17.30;86.10;;;;;;4917882;29;20413;-77
2022/04/23 09:06:49;;;;;;;2.05;1.30;;;17.50;85.70;;;;;;4918518;29;20161;-77
2022/04/23 09:09:22;;;;;;;1.90;1.52;;;17.70;84.90;;;;;;4917996;29;20134;-80
2022/04/23 09:11:56;;;;;;;3.35;1.70;;;17.90;84.60;;;;;;4935034;29;20066;-78
2022/04/23 09:14:23;;;;;;;1.80;1.48;;;18.00;81.00;;;;;;4916155;29;20077;-77
2022/04/23 09:25:10;;;;;;;3.15;2.00;;;18.70;79.20;;;;;;4930884;29;20043;-76
2022/04/23 09:27:41;;;;;;;4.45;2.17;;;18.70;78.30;;;;;;4934053;29;20102;-76
2022/04/23 09:30:07;;;;;;;1.98;1.63;;;18.80;77.70;;;;;;4933686;29;20040;-76
2022/04/23 09:32:34;;;;;;;4.35;1.80;;;18.80;77.20;;;;;;4933936;29;20051;-76
2022/04/23 09:35:08;;;;;;;3.55;2.45;;;18.70;77.10;;;;;;4933397;29;20074;-77
2022/04/23 09:40:22;;;;;;;4.43;3.08;;;18.70;77.40;;;;;;4934691;29;20559;-77
2022/04/23 09:43:02;;;;;;;3.35;3.03;;;18.80;77.60;;;;;;4934512;29;20039;-78
2022/04/23 09:45:29;;;;;;;4.00;3.15;;;18.90;76.90;;;;;;4933410;29;20036;-75
2022/04/23 09:48:04;;;;;;;3.72;3.22;;;18.90;77.30;;;;;;4934869;29;20515;-76
2022/04/23 09:50:36;;;;;;;3.83;2.72;;;19.00;76.80;;;;;;4935446;29;20039;-76
2022/04/23 09:53:16;;;;;;;5.47;3.08;;;19.10;76.70;;;;;;4933486;29;20036;-76
2022/04/23 09:55:45;;;;;;;3.50;2.95;;;19.20;76.90;;;;;;4931529;29;20066;-76
2022/04/23 09:58:13;;;;;;;3.05;2.75;;;19.40;76.50;;;;;;4932657;29;20573;-76
2022/04/23 10:00:41;;;;;;;2.33;2.13;;;19.60;75.90;;;;;;4931581;29;20027;-76
2022/04/23 10:03:08;;;;;;;2.75;2.00;;;19.60;74.60;;;;;;4932334;29;20082;-76
2022/04/23 10:05:45;;;;;;;3.20;2.10;;;19.80;74.70;;;;;;4916718;29;20040;-76
2022/04/23 10:08:21;;;;;;;1.73;1.27;;;19.80;73.40;;;;;;4921224;29;20063;-76
2022/04/23 10:10:58;;;;;;;2.15;1.42;;;20.00;72.90;;;;;;4936082;29;20042;-76
2022/04/23 10:13:27;;;;;;;1.45;1.10;;;20.10;73.30;;;;;;4937749;29;20043;-76
2022/04/23 10:15:54;;;;;;;2.40;1.30;;;20.20;73.10;;;;;;4936979;29;20047;-76
2022/04/23 10:18:21;;;;;;;2.78;1.35;;;20.30;72.80;;;;;;4936434;29;20123;-76
2022/04/23 10:21:07;;;;;;;3.03;1.80;;;20.50;72.90;;;;;;4937601;29;20035;-77
2022/04/23 10:23:58;;;;;;;1.88;1.70;;;20.60;71.80;;;;;;4915441;29;20074;-77
2022/04/23 10:26:56;;;;;;;1.48;1.00;;;20.70;69.20;;;;;;4937166;29;20500;-77
2022/04/23 10:29:23;;;;;;;1.63;1.40;;;20.90;69.40;;;;;;4937754;29;20137;-74
2022/04/23 10:32:11;;;;;;;4.68;1.73;;;21.10;67.50;;;;;;4937222;29;20086;-74
2022/04/23 10:34:38;;;;;;;2.78;1.40;;;21.30;66.80;;;;;;4931445;29;20103;-75
2022/04/23 10:37:20;;;;;;;2.38;1.38;;;21.40;68.50;;;;;;4937062;29;20089;-76
2022/04/23 10:40:06;;;;;;;1.90;1.45;;;21.60;68.90;;;;;;4937691;29;20040;-76
2022/04/23 10:42:32;;;;;;;3.38;2.17;;;21.50;66.10;;;;;;4919076;29;20534;-76
2022/04/23 10:45:07;;;;;;;1.40;1.30;;;21.40;66.70;;;;;;4935431;29;20039;-76
2022/04/23 10:47:34;;;;;;;2.13;1.40;;;21.30;66.00;;;;;;4931575;29;20469;-76
2022/04/23 10:50:15;;;;;;;3.05;1.40;;;21.20;65.20;;;;;;4937691;29;20039;-76
2022/04/23 10:52:42;;;;;;;1.40;1.30;;;21.10;67.00;;;;;;4930976;29;20035;-76
2022/04/23 10:55:09;;;;;;;1.40;1.30;;;21.00;66.90;;;;;;4936138;29;20122;-76
2022/04/23 10:57:35;;;;;;;1.33;1.20;;;20.80;67.00;;;;;;4935918;29;20032;-76
2022/04/23 11:00:17;;;;;;;2.03;1.45;;;20.80;66.60;;;;;;4930679;29;20438;-76
2022/04/23 11:02:47;;;;;;;1.98;1.38;;;20.70;66.50;;;;;;4938273;29;20068;-76
2022/04/23 11:14:07;;;;;;;3.35;2.10;;;20.50;69.10;;;;;;4933612;29;20051;-76
2022/04/23 11:16:33;;;;;;;2.13;1.92;;;20.50;69.20;;;;;;4935189;29;20051;-78
2022/04/23 11:19:02;;;;;;;2.28;1.80;;;20.60;69.00;;;;;;4937020;29;20032;-79
2022/04/23 11:21:35;;;;;;;2.05;1.25;;;20.60;68.70;;;;;;4937577;29;20081;-78
2022/04/23 11:24:02;;;;;;;1.20;1.10;;;20.70;67.50;;;;;;4932551;29;20040;-78
2022/04/23 11:26:47;;;;;;;2.22;1.40;;;20.60;67.70;;;;;;4937824;29;20039;-78
2022/04/23 11:29:19;;;;;;;1.50;1.40;;;20.60;67.30;;;;;;4919572;29;20032;-78
2022/04/23 11:31:55;;;;;;;1.73;1.40;;;20.70;67.10;;;;;;4937160;29;20032;-79
2022/04/23 11:34:22;;;;;;;2.95;1.98;;;20.80;68.00;;;;;;4937146;29;20035;-78
2022/04/23 11:36:48;;;;;;;2.25;1.63;;;21.20;67.30;;;;;;4921160;29;20042;-79
2022/04/23 11:39:14;;;;;;;3.15;1.40;;;21.80;66.70;;;;;;4937589;29;20027;-78
2022/04/23 11:41:51;;;;;;;2.45;1.80;;;22.50;65.50;;;;;;4938442;29;20087;-79
2022/04/23 11:47:08;;;;;;;1.90;1.17;;;23.70;62.40;;;;;;4938008;29;20580;-79
2022/04/23 11:49:34;;;;;;;1.65;1.38;;;24.00;61.10;;;;;;4938209;29;20405;-79
2022/04/23 11:52:11;;;;;;;1.50;1.38;;;24.20;60.80;;;;;;4937849;29;20042;-78
2022/04/23 11:54:42;;;;;;;1.90;1.17;;;24.20;58.90;;;;;;4937132;29;20028;-78
2022/04/23 11:57:14;;;;;;;1.20;1.02;;;24.10;59.70;;;;;;4937447;29;20039;-79
2022/04/23 11:59:49;;;;;;;3.17;1.05;;;24.20;59.60;;;;;;4920757;29;20039;-78
2022/04/23 12:02:37;;;;;;;1.60;1.10;;;24.30;59.50;;;;;;4935634;29;20043;-78
2022/04/23 12:05:03;;;;;;;2.45;1.42;;;24.40;59.40;;;;;;4926310;29;20540;-79
2022/04/23 12:07:32;;;;;;;2.08;0.85;;;24.60;59.10;;;;;;4937490;29;20039;-78
2022/04/23 12:10:03;;;;;;;1.20;1.08;;;24.80;58.20;;;;;;4937567;29;20032;-79
2022/04/23 12:12:31;;;;;;;1.30;0.98;;;24.90;58.30;;;;;;4929674;29;20051;-78
2022/04/23 12:15:09;;;;;;;1.33;0.88;;;25.00;56.20;;;;;;4937066;29;20035;-79
2022/04/23 12:17:47;;;;;;;1.20;0.80;;;25.00;56.90;;;;;;4933090;29;20493;-79
2022/04/23 12:20:24;;;;;;;0.80;0.70;;;25.00;55.80;;;;;;4936556;29;20500;-79
2022/04/23 12:22:58;;;;;;;1.10;1.00;;;25.00;55.00;;;;;;4916767;29;20040;-79
2022/04/23 12:25:25;;;;;;;1.55;0.80;;;25.20;55.50;;;;;;4935835;29;20460;-79
2022/04/23 12:42:38;;;;;;;1.27;1.17;;;26.70;52.30;;;;;;4938857;29;20087;-79
2022/04/23 12:45:04;;;;;;;2.60;0.88;;;26.80;51.50;;;;;;4924990;29;20051;-80
2022/04/23 12:47:30;;;;;;;1.15;0.80;;;26.80;50.90;;;;;;4936744;29;20122;-80
2022/04/23 12:50:00;;;;;;;1.38;1.00;;;26.90;50.20;;;;;;4937220;29;20412;-79
2022/04/23 12:52:46;;;;;;;1.17;1.02;;;27.00;50.20;;;;;;4934552;29;20078;-79
2022/04/23 12:55:22;;;;;;;1.52;1.10;;;27.50;49.20;;;;;;4936706;29;20553;-79
2022/04/23 12:58:04;;;;;;;4.20;1.40;;;27.90;49.20;;;;;;4938621;29;20024;-79
2022/04/23 13:00:33;;;;;;;1.63;1.30;;;28.20;46.90;;;;;;4934422;29;20480;-79
2022/04/23 13:03:06;;;;;;;1.50;1.00;;;28.50;47.50;;;;;;4931861;29;20095;-80
2022/04/23 13:05:32;;;;;;;2.60;1.27;;;28.70;46.70;;;;;;4909470;29;20449;-78
2022/04/23 13:10:48;;;;;;;1.52;1.17;;;29.00;45.60;;;;;;4933633;29;20050;-78
2022/04/23 13:13:14;;;;;;;2.22;1.20;;;28.90;45.10;;;;;;4925753;29;20036;-78
2022/04/23 13:15:39;;;;;;;1.58;1.30;;;28.80;45.50;;;;;;4935945;29;20111;-78
2022/04/23 13:18:06;;;;;;;2.75;1.48;;;28.90;45.90;;;;;;4918952;29;20074;-78
2022/04/23 13:20:33;;;;;;;1.52;1.20;;;29.10;45.60;;;;;;4936482;29;20046;-78
2022/04/23 13:22:59;;;;;;;1.65;1.38;;;29.00;44.80;;;;;;4918319;29;20050;-78
2022/04/23 13:25:26;;;;;;;4.22;1.55;;;28.70;44.80;;;;;;4935833;29;20083;-78
2022/04/23 13:28:01;;;;;;;3.35;1.60;;;28.40;45.30;;;;;;4936041;29;20032;-78
2022/04/23 13:30:27;;;;;;;2.13;1.50;;;28.20;46.00;;;;;;4918976;29;20035;-78
2022/04/23 13:32:52;;;;;;;1.40;1.25;;;28.10;46.50;;;;;;4936075;29;20441;-77
2022/04/23 13:35:20;;;;;;;2.13;1.48;;;28.10;46.60;;;;;;4935123;29;20516;-78
2022/04/23 13:37:45;;;;;;;1.50;1.30;;;28.10;46.50;;;;;;4935918;29;20047;-78
2022/04/23 13:40:12;;;;;;;2.47;1.52;;;28.00;47.20;;;;;;4935868;29;20051;-78